Terminal Aerodrome Forecast
Issued by NWS

Home | Current Version | Previous Version | Graphics & Text | Print | Product List | Glossary On
Versions: 1 2 3 4 5 6 7 8 9 10 11 12 13 14 15 16 17 18 19 20 21
000
FTUS43 KBIS 261600 AAB
TAFMOT
TAF AMD
KMOT 261609Z 2616/2712 25018G28KT P6SM BKN035
     FM261700 27023G33KT P6SM VCSH BKN035 BKN050
      TEMPO 2617/2621 -SHRA
     FM270200 30014KT P6SM BKN050=

USA.gov is the U.S. government's official web portal to all federal, state and local government web resources and services.